createdAt,value
2018-05-06T00:00:34.463Z,94189.30
2018-05-06T00:03:02.931Z,94187.38
2018-05-06T00:05:31.336Z,94188.48
2018-05-06T00:07:59.724Z,94195.19
2018-05-06T00:10:28.204Z,94190.71
2018-05-06T00:12:56.786Z,94185.36
2018-05-06T00:15:25.262Z,94187.92
2018-05-06T00:17:55.127Z,94181.42
2018-05-06T00:20:23.644Z,94187.85
2018-05-06T00:22:52.104Z,94191.02
2018-05-06T00:25:20.531Z,94200.27
2018-05-06T00:27:50.911Z,94195.46
2018-05-06T00:30:19.363Z,94196.88
2018-05-06T00:32:47.959Z,94200.67
2018-05-06T00:35:16.402Z,94204.62
2018-05-06T00:37:44.848Z,94203.23
2018-05-06T00:40:13.251Z,94202.39
2018-05-06T00:42:41.688Z,94207.92
2018-05-06T00:45:10.122Z,94207.92
2018-05-06T00:47:38.547Z,94206.30
2018-05-06T00:50:06.952Z,94206.42
2018-05-06T00:52:35.367Z,94209.95
2018-05-06T00:55:03.715Z,94209.16
2018-05-06T00:57:32.193Z,94211.39
2018-05-06T01:00:00.631Z,94206.55
2018-05-06T01:02:30.356Z,94198.84
2018-05-06T01:04:58.775Z,94202.88
2018-05-06T01:07:28.470Z,94206.35
2018-05-06T01:09:57.973Z,94203.59
2018-05-06T01:12:26.322Z,94217.11
2018-05-06T01:14:54.834Z,94216.19
2018-05-06T01:17:23.236Z,94221.77
2018-05-06T01:19:53.123Z,94219.83
2018-05-06T01:22:21.548Z,94222.30
2018-05-06T01:24:49.963Z,94223.81
2018-05-06T01:27:18.376Z,94229.30
2018-05-06T01:29:46.808Z,94228.79
2018-05-06T01:32:15.336Z,94223.93
2018-05-06T01:34:43.697Z,94225.05
2018-05-06T01:37:12.118Z,94229.29
2018-05-06T01:39:40.520Z,94236.00
2018-05-06T01:42:08.982Z,94236.81
2018-05-06T01:44:39.339Z,94235.59
2018-05-06T01:47:07.787Z,94244.53
2018-05-06T01:49:36.279Z,94237.62
2018-05-06T01:52:04.638Z,94241.69
2018-05-06T01:54:34.767Z,94238.45
2018-05-06T01:57:03.230Z,94236.41
2018-05-06T01:59:31.659Z,94241.39
2018-05-06T02:02:00.163Z,94234.80
2018-05-06T02:04:28.576Z,94238.64
2018-05-06T02:06:56.998Z,94231.45
2018-05-06T02:09:25.408Z,94227.09
2018-05-06T02:11:53.808Z,94224.47
2018-05-06T02:14:23.783Z,94225.66
2018-05-06T02:16:52.195Z,94232.36
2018-05-06T02:19:21.783Z,94228.73
2018-05-06T02:21:50.222Z,94229.81
2018-05-06T02:24:20.035Z,94230.94
2018-05-06T02:26:50.262Z,94234.72
2018-05-06T02:29:18.719Z,94230.94
2018-05-06T02:31:47.183Z,94234.31
2018-05-06T02:34:15.902Z,94230.55
2018-05-06T02:36:44.340Z,94230.52
2018-05-06T02:39:12.764Z,94233.16
2018-05-06T02:41:44.675Z,94227.67
2018-05-06T02:44:13.107Z,94238.03
2018-05-06T02:46:41.495Z,94233.38
2018-05-06T02:49:09.900Z,94221.70
2018-05-06T02:51:38.263Z,94217.55
2018-05-06T02:54:06.713Z,94220.18
2018-05-06T02:56:35.130Z,94222.80
2018-05-06T02:59:03.495Z,94219.55
2018-05-06T03:01:31.912Z,94214.06
2018-05-06T03:04:02.067Z,94218.83
2018-05-06T03:06:31.995Z,94218.14
2018-05-06T03:09:02.467Z,94215.17
2018-05-06T03:11:32.418Z,94210.13
2018-05-06T03:14:00.882Z,94213.62
2018-05-06T03:16:29.352Z,94212.44
2018-05-06T03:18:57.768Z,94211.20
2018-05-06T03:21:26.167Z,94208.49
2018-05-06T03:23:56.570Z,94208.75
2018-05-06T03:26:25.039Z,94213.21
2018-05-06T03:28:53.467Z,94217.34
2018-05-06T03:31:22.195Z,94215.22
2018-05-06T03:33:50.603Z,94215.02
2018-05-06T03:36:20.987Z,94216.42
2018-05-06T03:38:49.727Z,94218.67
2018-05-06T03:41:18.093Z,94213.00
2018-05-06T03:43:46.525Z,94219.46
2018-05-06T03:46:14.939Z,94209.95
2018-05-06T03:48:43.306Z,94219.06
2018-05-06T03:51:11.714Z,94223.10
2018-05-06T03:53:40.143Z,94223.90
2018-05-06T04:09:30.777Z,94218.22
2018-05-06T04:12:00.539Z,94225.02
2018-05-06T04:14:29.067Z,94219.20
2018-05-06T04:16:57.473Z,94211.54
2018-05-06T04:19:26.243Z,94220.23
2018-05-06T04:21:54.662Z,94219.13
2018-05-06T04:24:23.012Z,94224.30
2018-05-06T04:26:51.529Z,94222.89
2018-05-06T04:29:19.911Z,94223.48
2018-05-06T04:31:48.396Z,94230.59
2018-05-06T04:34:16.908Z,94228.37
2018-05-06T04:36:45.323Z,94232.73
2018-05-06T04:39:13.738Z,94231.65
2018-05-06T04:41:42.116Z,94243.17
2018-05-06T04:44:10.618Z,94239.39
2018-05-06T04:46:40.710Z,94246.78
2018-05-06T04:49:09.117Z,94244.67
2018-05-06T04:51:37.476Z,94247.72
2018-05-06T04:54:05.894Z,94248.65
2018-05-06T04:56:34.258Z,94245.41
2018-05-06T04:59:02.711Z,94250.80
2018-05-06T05:01:31.104Z,94239.84
2018-05-06T05:03:59.493Z,94249.06
2018-05-06T05:06:27.962Z,94250.98
2018-05-06T05:08:56.396Z,94248.17
2018-05-06T05:11:24.833Z,94237.23
2018-05-06T05:13:53.309Z,94244.53
2018-05-06T05:16:21.727Z,94241.20
2018-05-06T05:18:50.186Z,94246.97
2018-05-06T05:21:18.608Z,94246.45
2018-05-06T05:23:46.991Z,94251.64
2018-05-06T05:26:15.411Z,94256.69
2018-05-06T05:28:43.867Z,94246.13
2018-05-06T05:31:12.239Z,94245.48
2018-05-06T05:33:40.676Z,94243.92
2018-05-06T05:36:09.112Z,94249.70
2018-05-06T05:38:37.486Z,94253.95
2018-05-06T05:41:07.463Z,94246.92
2018-05-06T05:43:35.925Z,94245.50
2018-05-06T05:46:04.280Z,94244.78
2018-05-06T05:48:32.688Z,94248.84
2018-05-06T05:51:01.155Z,94242.52
2018-05-06T05:53:29.566Z,94247.77
2018-05-06T05:55:57.998Z,94250.78
2018-05-06T05:58:26.418Z,94250.64
2018-05-06T06:00:54.798Z,94255.44
2018-05-06T06:03:23.217Z,94249.83
2018-05-06T06:05:52.767Z,94249.13
2018-05-06T06:08:21.184Z,94256.23
2018-05-06T06:10:49.607Z,94264.64
2018-05-06T06:13:21.643Z,94268.11
2018-05-06T06:15:50.098Z,94254.16
2018-05-06T06:18:19.550Z,94254.59
2018-05-06T06:20:48.563Z,94261.58
2018-05-06T06:23:16.963Z,94258.19
2018-05-06T06:25:44.375Z,94250.38
2018-05-06T06:28:14.788Z,94251.17
2018-05-06T06:30:43.179Z,94249.12
2018-05-06T06:33:10.517Z,94250.08
2018-05-06T06:35:41.671Z,94250.92
2018-05-06T06:38:11.155Z,94249.58
2018-05-06T06:40:39.574Z,94250.76
2018-05-06T06:43:08.321Z,94250.88
2018-05-06T06:45:36.719Z,94252.75
2018-05-06T06:48:04.101Z,94259.15
2018-05-06T06:50:33.991Z,94255.70
2018-05-06T06:53:02.406Z,94255.25
2018-05-06T06:55:30.594Z,94256.08
2018-05-06T06:57:58.912Z,94253.16
2018-05-06T07:00:27.385Z,94260.11
2018-05-06T07:02:54.734Z,94259.80
2018-05-06T07:05:23.224Z,94253.79
2018-05-06T07:07:51.675Z,94252.72
2018-05-06T07:10:19.032Z,94262.11
2018-05-06T07:12:48.229Z,94264.00
2018-05-06T07:15:15.613Z,94256.31
2018-05-06T07:17:45.057Z,94255.09
2018-05-06T07:20:12.395Z,94255.50
2018-05-06T07:22:41.960Z,94257.92
2018-05-06T07:25:10.344Z,94248.05
2018-05-06T07:27:37.690Z,94245.28
2018-05-06T07:30:06.409Z,94250.09
2018-05-06T07:32:34.731Z,94253.73
2018-05-06T07:35:02.830Z,94241.09
2018-05-06T07:37:31.047Z,94253.34
2018-05-06T07:39:59.378Z,94257.36
2018-05-06T07:42:26.750Z,94251.95
2018-05-06T07:44:55.081Z,94258.25
2018-05-06T07:47:22.396Z,94252.84
2018-05-06T07:49:50.822Z,94252.45
2018-05-06T07:52:19.204Z,94243.97
2018-05-06T07:54:47.422Z,94245.04
2018-05-06T07:57:14.759Z,94252.58
2018-05-06T07:59:43.143Z,94256.97
2018-05-06T08:02:11.423Z,94245.45
2018-05-06T08:04:39.830Z,94250.95
2018-05-06T08:07:07.136Z,94252.78
2018-05-06T08:09:35.405Z,94247.23
2018-05-06T08:12:03.615Z,94246.30
2018-05-06T08:14:32.040Z,94252.99
2018-05-06T08:16:59.324Z,94250.17
2018-05-06T08:19:27.503Z,94249.67
2018-05-06T08:21:55.826Z,94245.43
2018-05-06T08:24:24.016Z,94250.94
2018-05-06T08:26:52.422Z,94242.41
2018-05-06T08:29:20.542Z,94242.45
2018-05-06T08:31:48.691Z,94235.18
2018-05-06T08:34:16.815Z,94235.57
2018-05-06T08:36:45.108Z,94243.89
2018-05-06T08:39:13.281Z,94250.50
2018-05-06T08:41:42.623Z,94238.11
2018-05-06T08:44:10.874Z,94241.84
2018-05-06T08:46:39.152Z,94237.27
2018-05-06T08:49:07.339Z,94235.42
2018-05-06T08:51:35.572Z,94239.06
2018-05-06T08:54:04.300Z,94248.77
2018-05-06T08:56:32.987Z,94247.89
2018-05-06T08:59:01.247Z,94233.84
2018-05-06T09:01:29.445Z,94232.50
2018-05-06T09:03:57.692Z,94240.12
2018-05-06T09:06:25.844Z,94230.14
2018-05-06T09:08:54.007Z,94237.66
2018-05-06T09:11:22.246Z,94231.50
2018-05-06T09:13:50.689Z,94230.55
2018-05-06T09:16:17.993Z,94224.95
2018-05-06T09:18:46.665Z,94228.86
2018-05-06T09:21:15.083Z,94233.25
2018-05-06T09:23:43.305Z,94234.70
2018-05-06T09:26:11.883Z,94229.20
2018-05-06T09:28:40.120Z,94231.22
2018-05-06T09:31:08.430Z,94235.88
2018-05-06T09:33:36.659Z,94223.13
2018-05-06T09:36:04.935Z,94215.03
2018-05-06T09:38:33.191Z,94231.02
2018-05-06T09:41:01.406Z,94231.92
2018-05-06T09:43:30.290Z,94230.34
2018-05-06T09:45:58.441Z,94216.19
2018-05-06T09:48:26.729Z,94216.64
2018-05-06T09:50:54.980Z,94210.66
2018-05-06T09:53:23.183Z,94214.56
2018-05-06T09:55:51.326Z,94205.28
2018-05-06T09:58:19.526Z,94209.91
2018-05-06T10:00:47.757Z,94204.24
2018-05-06T10:03:16.180Z,94207.97
2018-05-06T10:05:44.290Z,94208.77
2018-05-06T10:08:12.781Z,94208.55
2018-05-06T10:10:41.125Z,94207.36
2018-05-06T10:13:09.370Z,94196.95
2018-05-06T10:15:37.804Z,94200.61
2018-05-06T10:18:06.150Z,94201.59
2018-05-06T10:20:34.428Z,94198.48
2018-05-06T10:23:02.679Z,94200.86
2018-05-06T10:25:30.928Z,94189.95
2018-05-06T10:27:59.224Z,94190.40
2018-05-06T10:30:27.403Z,94186.85
2018-05-06T10:32:55.633Z,94183.39
2018-05-06T10:35:25.013Z,94196.58
2018-05-06T10:37:53.434Z,94183.25
2018-05-06T10:40:21.853Z,94192.38
2018-05-06T10:42:51.317Z,94186.67
2018-05-06T10:45:19.728Z,94186.79
2018-05-06T10:47:48.167Z,94188.22
2018-05-06T10:50:16.580Z,94176.94
2018-05-06T10:52:45.089Z,94179.38
2018-05-06T10:55:13.403Z,94178.19
2018-05-06T10:57:41.624Z,94173.39
2018-05-06T11:00:10.095Z,94179.34
2018-05-06T11:02:38.511Z,94169.31
2018-05-06T11:05:06.804Z,94169.02
2018-05-06T11:07:35.186Z,94176.31
2018-05-06T11:10:04.027Z,94165.59
2018-05-06T11:12:32.241Z,94168.64
2018-05-06T11:15:00.563Z,94165.41
2018-05-06T11:17:28.875Z,94170.80
2018-05-06T11:19:57.323Z,94165.31
2018-05-06T11:22:26.793Z,94169.02
2018-05-06T11:24:56.119Z,94157.10
2018-05-06T11:27:24.535Z,94151.77
2018-05-06T11:29:52.971Z,94167.77
2018-05-06T11:32:21.461Z,94157.50
2018-05-06T11:34:50.879Z,94166.48
2018-05-06T11:37:19.354Z,94150.78
2018-05-06T11:39:47.767Z,94157.97
2018-05-06T11:42:16.236Z,94139.61
2018-05-06T11:44:44.670Z,94153.47
2018-05-06T11:47:13.084Z,94145.16
2018-05-06T11:49:41.569Z,94146.50
2018-05-06T11:52:10.044Z,94137.97
2018-05-06T11:54:38.495Z,94135.98
2018-05-06T11:57:06.869Z,94154.55
2018-05-06T11:59:35.250Z,94132.72
2018-05-06T12:02:03.768Z,94130.86
2018-05-06T12:04:33.111Z,94133.72
2018-05-06T12:07:01.563Z,94130.97
2018-05-06T12:09:30.043Z,94133.83
2018-05-06T12:11:58.488Z,94130.65
2018-05-06T12:14:27.990Z,94122.98
2018-05-06T12:16:56.408Z,94125.59
2018-05-06T12:19:24.845Z,94114.94
2018-05-06T12:21:53.394Z,94125.14
2018-05-06T12:24:21.738Z,94115.42
2018-05-06T12:26:50.212Z,94109.72
2018-05-06T12:29:18.855Z,94107.27
2018-05-06T12:31:47.350Z,94112.49
2018-05-06T12:34:15.819Z,94103.64
2018-05-06T12:36:44.226Z,94103.66
2018-05-06T12:39:13.457Z,94103.80
2018-05-06T12:41:41.923Z,94099.02
2018-05-06T12:44:10.416Z,94087.63
2018-05-06T12:46:38.862Z,94104.68
2018-05-06T12:49:07.303Z,94087.29
2018-05-06T12:51:35.711Z,94091.42
2018-05-06T12:54:04.210Z,94092.90
2018-05-06T12:56:32.694Z,94088.60
2018-05-06T12:59:01.071Z,94081.70
2018-05-06T13:01:29.500Z,94086.20
2018-05-06T13:03:58.900Z,94085.02
2018-05-06T13:06:27.271Z,94079.25
2018-05-06T13:08:56.167Z,94086.59
2018-05-06T13:11:24.636Z,94078.52
2018-05-06T13:13:53.052Z,94089.66
2018-05-06T13:16:22.915Z,94082.58
2018-05-06T13:18:51.396Z,94081.56
2018-05-06T13:21:19.871Z,94085.63
2018-05-06T13:23:48.299Z,94072.09
2018-05-06T13:26:16.766Z,94073.81
2018-05-06T13:28:45.119Z,94082.27
2018-05-06T13:31:13.643Z,94080.89
2018-05-06T13:33:42.064Z,94074.23
2018-05-06T13:36:11.480Z,94077.84
2018-05-06T13:38:39.975Z,94073.42
2018-05-06T13:41:08.396Z,94067.66
2018-05-06T13:43:37.932Z,94081.61
2018-05-06T13:46:06.432Z,94062.05
2018-05-06T13:48:34.950Z,94076.66
2018-05-06T13:51:03.415Z,94074.24
2018-05-06T13:53:31.884Z,94094.61
2018-05-06T13:56:00.356Z,94069.55
2018-05-06T13:58:28.783Z,94069.16
2018-05-06T14:00:58.309Z,94062.87
2018-05-06T14:03:27.586Z,94070.63
2018-05-06T14:05:56.094Z,94062.03
2018-05-06T14:08:24.602Z,94053.33
2018-05-06T14:10:53.074Z,94060.73
2018-05-06T14:13:22.521Z,94051.48
2018-05-06T14:15:51.019Z,94051.22
2018-05-06T14:18:19.418Z,94061.13
2018-05-06T14:20:48.843Z,94050.94
2018-05-06T14:23:17.324Z,94058.19
2018-05-06T14:25:46.956Z,94052.80
2018-05-06T14:28:15.659Z,94053.75
2018-05-06T14:30:44.062Z,94058.97
2018-05-06T14:33:12.492Z,94056.97
2018-05-06T14:35:41.916Z,94061.80
2018-05-06T14:38:10.354Z,94060.42
2018-05-06T14:40:38.704Z,94056.30
2018-05-06T14:43:07.131Z,94049.22
2018-05-06T14:45:36.478Z,94057.49
2018-05-06T14:48:11.097Z,94058.56
2018-05-06T14:50:39.550Z,94053.50
2018-05-06T14:53:09.128Z,94036.08
2018-05-06T14:55:37.588Z,94047.31
2018-05-06T14:58:07.033Z,94054.44
2018-05-06T15:00:35.512Z,94042.36
2018-05-06T15:03:04.984Z,94053.09
2018-05-06T15:05:33.408Z,94049.16
2018-05-06T15:08:01.806Z,94051.02
2018-05-06T15:10:30.343Z,94043.41
2018-05-06T15:12:58.730Z,94050.63
2018-05-06T15:15:27.152Z,94048.36
2018-05-06T15:17:55.642Z,94040.86
2018-05-06T15:20:24.076Z,94039.94
2018-05-06T15:22:52.594Z,94045.83
2018-05-06T15:25:21.769Z,94046.23
2018-05-06T15:27:51.223Z,94048.77
2018-05-06T15:30:19.716Z,94034.57
2018-05-06T15:32:48.800Z,94049.67
2018-05-06T15:35:17.232Z,94036.03
2018-05-06T15:37:44.657Z,94040.58
2018-05-06T15:40:13.083Z,94033.87
2018-05-06T15:42:41.531Z,94029.05
2018-05-06T15:45:09.972Z,94041.79
2018-05-06T15:47:38.466Z,94041.51
2018-05-06T15:50:08.152Z,94041.37
2018-05-06T15:52:38.281Z,94032.94
2018-05-06T15:55:06.708Z,94038.66
2018-05-06T15:57:35.143Z,94027.44
2018-05-06T16:00:05.136Z,94025.68
2018-05-06T16:02:49.931Z,94030.75
2018-05-06T16:05:19.633Z,94026.22
2018-05-06T16:07:48.107Z,94031.97
2018-05-06T16:10:18.096Z,94025.72
2018-05-06T16:12:46.532Z,94024.99
2018-05-06T16:15:15.173Z,94023.94
2018-05-06T16:17:43.812Z,94022.99
2018-05-06T16:20:12.404Z,94022.59
2018-05-06T16:22:40.955Z,94023.94
2018-05-06T16:25:09.328Z,94021.11
2018-05-06T16:27:37.742Z,94019.91
2018-05-06T16:30:07.597Z,94021.42
2018-05-06T16:32:37.334Z,94023.44
2018-05-06T16:35:05.765Z,94034.52
2018-05-06T16:37:34.187Z,94025.52
2018-05-06T16:40:03.664Z,94025.53
2018-05-06T16:42:33.241Z,94004.38
2018-05-06T16:45:01.685Z,94020.39
2018-05-06T16:47:30.811Z,94023.71
2018-05-06T16:50:00.591Z,94022.36
2018-05-06T16:52:30.527Z,94025.44
2018-05-06T16:54:58.987Z,94016.20
2018-05-06T16:57:27.455Z,94021.27
2018-05-06T16:59:55.862Z,94016.71
2018-05-06T17:02:24.384Z,94015.08
2018-05-06T17:04:53.877Z,94021.53
2018-05-06T17:07:23.732Z,94015.20
2018-05-06T17:09:52.219Z,94022.19
2018-05-06T17:12:23.064Z,94016.52
2018-05-06T17:14:51.849Z,94019.30
2018-05-06T17:17:20.287Z,94017.09
2018-05-06T17:19:48.737Z,94017.78
2018-05-06T17:22:18.674Z,94019.80
2018-05-06T17:24:47.109Z,94015.58
2018-05-06T17:27:16.679Z,94010.59
2018-05-06T17:29:46.189Z,94020.06
2018-05-06T17:32:14.611Z,94024.06
2018-05-06T17:34:43.047Z,94022.83
2018-05-06T17:37:11.418Z,94026.48
2018-05-06T17:39:41.419Z,94017.86
2018-05-06T17:42:09.877Z,94015.34
2018-05-06T17:44:40.927Z,94026.31
2018-05-06T17:47:10.375Z,94017.69
2018-05-06T17:49:38.826Z,94028.88
2018-05-06T17:52:07.238Z,94027.95
2018-05-06T17:54:37.144Z,94028.36
2018-05-06T17:57:05.592Z,94028.08
2018-05-06T17:59:34.038Z,94023.95
2018-05-06T18:02:05.591Z,94030.30
2018-05-06T18:04:34.088Z,94030.78
2018-05-06T18:07:02.603Z,94027.06
2018-05-06T18:09:31.088Z,94028.06
2018-05-06T18:11:59.511Z,94029.64
2018-05-06T18:14:28.041Z,94026.35
2018-05-06T18:16:56.443Z,94026.08
2018-05-06T18:19:24.925Z,94025.37
2018-05-06T18:21:53.635Z,94029.41
2018-05-06T18:24:23.616Z,94023.43
2018-05-06T18:26:52.085Z,94021.78
2018-05-06T18:29:20.537Z,94025.53
2018-05-06T18:31:49.024Z,94022.75
2018-05-06T18:34:17.459Z,94033.69
2018-05-06T18:36:47.272Z,94039.36
2018-05-06T18:39:15.667Z,94049.09
2018-05-06T18:41:44.176Z,94041.88
2018-05-06T18:44:12.648Z,94046.35
2018-05-06T18:46:41.116Z,94045.16
2018-05-06T18:49:09.503Z,94049.45
2018-05-06T18:51:37.959Z,94049.05
2018-05-06T18:54:06.384Z,94053.94
2018-05-06T18:56:34.882Z,94051.75
2018-05-06T18:59:03.368Z,94057.09
2018-05-06T19:01:31.821Z,94063.68
2018-05-06T19:04:00.264Z,94060.47
2018-05-06T19:06:28.741Z,94058.22
2018-05-06T19:08:58.609Z,94062.02
2018-05-06T19:11:27.015Z,94070.09
2018-05-06T19:13:55.487Z,94061.86
2018-05-06T19:16:25.668Z,94065.24
2018-05-06T19:18:54.098Z,94069.78
2018-05-06T19:21:22.567Z,94075.11
2018-05-06T19:23:51.041Z,94072.48
2018-05-06T19:26:19.496Z,94078.09
2018-05-06T19:28:47.867Z,94075.93
2018-05-06T19:31:16.467Z,94075.12
2018-05-06T19:33:44.836Z,94075.30
2018-05-06T19:36:14.899Z,94070.21
2018-05-06T19:38:43.323Z,94073.10
2018-05-06T19:41:11.811Z,94078.56
2018-05-06T19:43:40.255Z,94074.69
2018-05-06T19:46:08.652Z,94075.95
2018-05-06T19:48:38.919Z,94075.03
2018-05-06T19:51:07.389Z,94080.38
2018-05-06T19:53:35.840Z,94076.77
2018-05-06T19:56:06.214Z,94072.13
2018-05-06T19:58:36.376Z,94070.95
2018-05-06T20:01:04.770Z,94072.44
2018-05-06T20:03:33.151Z,94076.42
2018-05-06T20:06:01.578Z,94083.95
2018-05-06T20:08:30.011Z,94077.89
2018-05-06T20:10:58.443Z,94081.17
2018-05-06T20:13:26.870Z,94083.66
2018-05-06T20:16:02.974Z,94077.42
2018-05-06T20:18:34.805Z,94087.70
2018-05-06T20:21:04.947Z,94089.94
2018-05-06T20:23:33.327Z,94084.26
2018-05-06T20:26:05.353Z,94084.81
2018-05-06T20:28:35.268Z,94086.37
2018-05-06T20:31:03.646Z,94090.59
2018-05-06T20:33:32.011Z,94086.02
2018-05-06T20:36:00.336Z,94085.13
2018-05-06T20:38:28.862Z,94086.73
2018-05-06T20:40:58.838Z,94087.45
2018-05-06T20:43:27.262Z,94085.49
2018-05-06T20:45:55.773Z,94091.73
2018-05-06T20:48:26.356Z,94088.16
2018-05-06T20:50:54.803Z,94093.46
2018-05-06T20:53:25.123Z,94101.17
2018-05-06T20:55:54.902Z,94099.63
2018-05-06T20:58:23.315Z,94106.38
2018-05-06T21:00:55.829Z,94098.00
2018-05-06T21:03:24.225Z,94096.05
2018-05-06T21:05:52.564Z,94100.28
2018-05-06T21:08:20.916Z,94091.55
2018-05-06T21:10:51.479Z,94102.98
2018-05-06T21:13:19.900Z,94092.95
2018-05-06T21:15:48.294Z,94091.47
2018-05-06T21:18:22.798Z,94094.95
2018-05-06T21:20:53.205Z,94093.23
2018-05-06T21:23:25.161Z,94091.61
2018-05-06T21:25:55.730Z,94090.88
2018-05-06T21:28:24.087Z,94088.66
2018-05-06T21:30:52.444Z,94090.97
2018-05-06T21:33:20.913Z,94081.25
2018-05-06T21:35:49.320Z,94081.91
2018-05-06T21:38:19.768Z,94070.66
2018-05-06T21:40:48.093Z,94078.02
2018-05-06T21:43:16.656Z,94076.31
2018-05-06T21:45:44.917Z,94078.91
2018-05-06T21:48:13.284Z,94080.41
2018-05-06T21:50:41.971Z,94077.56
2018-05-06T21:53:13.883Z,94082.97
2018-05-06T21:55:42.327Z,94073.97
2018-05-06T21:58:10.703Z,94076.84
2018-05-06T22:00:39.114Z,94081.80
2018-05-06T22:03:11.715Z,94084.28
2018-05-06T22:05:40.067Z,94084.33
2018-05-06T22:08:08.463Z,94078.28
2018-05-06T22:10:36.896Z,94081.76
2018-05-06T22:13:05.291Z,94083.63
2018-05-06T22:15:33.695Z,94080.86
2018-05-06T22:18:03.881Z,94092.16
2018-05-06T22:20:32.670Z,94077.30
2018-05-06T22:23:03.043Z,94083.48
2018-05-06T22:25:31.455Z,94084.48
2018-05-06T22:27:59.848Z,94082.20
2018-05-06T22:30:28.315Z,94083.83
2018-05-06T22:33:00.727Z,94076.06
2018-05-06T22:35:30.548Z,94079.78
2018-05-06T22:38:00.424Z,94080.42
2018-05-06T22:40:28.791Z,94074.22
2018-05-06T22:42:57.178Z,94081.21
2018-05-06T22:45:27.157Z,94076.53
2018-05-06T22:47:55.532Z,94082.08
2018-05-06T22:50:23.975Z,94084.21
2018-05-06T22:52:52.351Z,94083.26
2018-05-06T22:55:20.759Z,94077.80
2018-05-06T22:57:52.744Z,94082.69
2018-05-06T23:00:21.151Z,94083.86
2018-05-06T23:02:49.528Z,94076.95
2018-05-06T23:05:17.984Z,94069.78
2018-05-06T23:07:46.367Z,94079.70
2018-05-06T23:10:14.733Z,94075.25
2018-05-06T23:12:43.131Z,94076.72
2018-05-06T23:15:11.551Z,94078.45
2018-05-06T23:17:39.907Z,94071.37
2018-05-06T23:20:09.789Z,94075.65
2018-05-06T23:22:38.232Z,94068.98
2018-05-06T23:25:06.652Z,94071.47
2018-05-06T23:27:35.051Z,94066.68
2018-05-06T23:30:03.823Z,94066.00
2018-05-06T23:32:32.195Z,94067.53
2018-05-06T23:35:00.561Z,94053.27
2018-05-06T23:37:29.011Z,94058.44
2018-05-06T23:39:57.353Z,94056.50
2018-05-06T23:42:25.815Z,94054.65
2018-05-06T23:44:54.175Z,94050.31
2018-05-06T23:47:22.647Z,94050.86
2018-05-06T23:49:53.204Z,94050.46
2018-05-06T23:52:21.647Z,94053.95
2018-05-06T23:54:50.105Z,94048.67
2018-05-06T23:57:18.522Z,94048.38
2018-05-06T23:59:47.227Z,94050.98
